sensor_id;sensor_type;location;lat;lon;timestamp;P1;durP1;ratioP1;P2;durP2;ratioP2
64820;SDS011;51256;55.654;37.264;2022-09-27T00:01:11;11.35;;;6.78;;
64820;SDS011;51256;55.654;37.264;2022-09-27T00:03:41;12.80;;;6.65;;
64820;SDS011;51256;55.654;37.264;2022-09-27T00:06:09;12.35;;;7.03;;
64820;SDS011;51256;55.654;37.264;2022-09-27T00:08:40;9.93;;;6.07;;
64820;SDS011;51256;55.654;37.264;2022-09-27T00:11:06;10.68;;;6.50;;
64820;SDS011;51256;55.654;37.264;2022-09-27T00:13:38;13.40;;;6.82;;
64820;SDS011;51256;55.654;37.264;2022-09-27T00:16:03;12.23;;;6.72;;
64820;SDS011;51256;55.654;37.264;2022-09-27T00:18:29;14.40;;;6.60;;
64820;SDS011;51256;55.654;37.264;2022-09-27T00:20:55;11.35;;;6.45;;
64820;SDS011;51256;55.654;37.264;2022-09-27T00:23:28;9.52;;;5.72;;
64820;SDS011;51256;55.654;37.264;2022-09-27T00:25:55;11.43;;;5.95;;
64820;SDS011;51256;55.654;37.264;2022-09-27T00:28:22;10.30;;;6.20;;
64820;SDS011;51256;55.654;37.264;2022-09-27T00:30:48;9.65;;;5.80;;
64820;SDS011;51256;55.654;37.264;2022-09-27T00:33:14;10.50;;;5.65;;
64820;SDS011;51256;55.654;37.264;2022-09-27T00:35:39;12.27;;;6.05;;
64820;SDS011;51256;55.654;37.264;2022-09-27T00:38:05;9.70;;;5.57;;
64820;SDS011;51256;55.654;37.264;2022-09-27T00:40:31;10.02;;;5.88;;
64820;SDS011;51256;55.654;37.264;2022-09-27T00:42:57;9.85;;;5.95;;
64820;SDS011;51256;55.654;37.264;2022-09-27T00:45:22;11.05;;;5.88;;
64820;SDS011;51256;55.654;37.264;2022-09-27T00:47:55;12.52;;;6.25;;
64820;SDS011;51256;55.654;37.264;2022-09-27T00:50:35;16.02;;;7.65;;
64820;SDS011;51256;55.654;37.264;2022-09-27T00:55:40;14.05;;;7.45;;
64820;SDS011;51256;55.654;37.264;2022-09-27T00:58:11;17.98;;;7.30;;
64820;SDS011;51256;55.654;37.264;2022-09-27T01:00:41;13.55;;;7.97;;
64820;SDS011;51256;55.654;37.264;2022-09-27T01:03:12;14.90;;;8.07;;
64820;SDS011;51256;55.654;37.264;2022-09-27T01:05:42;12.18;;;6.82;;
64820;SDS011;51256;55.654;37.264;2022-09-27T01:08:08;10.77;;;6.55;;
64820;SDS011;51256;55.654;37.264;2022-09-27T01:10:39;13.52;;;7.05;;
64820;SDS011;51256;55.654;37.264;2022-09-27T01:13:18;11.88;;;7.13;;
64820;SDS011;51256;55.654;37.264;2022-09-27T01:18:40;15.52;;;8.00;;
64820;SDS011;51256;55.654;37.264;2022-09-27T01:21:30;14.50;;;8.85;;
64820;SDS011;51256;55.654;37.264;2022-09-27T01:32:42;14.93;;;7.80;;
64820;SDS011;51256;55.654;37.264;2022-09-27T01:38:13;16.63;;;7.95;;
64820;SDS011;51256;55.654;37.264;2022-09-27T01:40:47;14.30;;;7.63;;
64820;SDS011;51256;55.654;37.264;2022-09-27T01:43:37;24.98;;;9.10;;
64820;SDS011;51256;55.654;37.264;2022-09-27T01:46:10;19.48;;;8.50;;
64820;SDS011;51256;55.654;37.264;2022-09-27T01:48:44;13.68;;;7.20;;
64820;SDS011;51256;55.654;37.264;2022-09-27T01:51:35;15.82;;;7.47;;
64820;SDS011;51256;55.654;37.264;2022-09-27T01:54:22;17.48;;;8.15;;
64820;SDS011;51256;55.654;37.264;2022-09-27T01:56:51;14.80;;;7.30;;
64820;SDS011;51256;55.654;37.264;2022-09-27T01:59:24;14.75;;;7.47;;
64820;SDS011;51256;55.654;37.264;2022-09-27T02:01:56;17.70;;;7.88;;
64820;SDS011;51256;55.654;37.264;2022-09-27T02:04:26;44.50;;;8.65;;
64820;SDS011;51256;55.654;37.264;2022-09-27T02:06:56;37.53;;;8.85;;
64820;SDS011;51256;55.654;37.264;2022-09-27T02:09:33;32.63;;;9.48;;
64820;SDS011;51256;55.654;37.264;2022-09-27T02:12:02;44.90;;;9.43;;
64820;SDS011;51256;55.654;37.264;2022-09-27T02:14:38;52.67;;;9.27;;
64820;SDS011;51256;55.654;37.264;2022-09-27T02:17:22;45.72;;;9.45;;
64820;SDS011;51256;55.654;37.264;2022-09-27T02:19:57;119.95;;;10.32;;
64820;SDS011;51256;55.654;37.264;2022-09-27T02:22:38;87.38;;;9.43;;
64820;SDS011;51256;55.654;37.264;2022-09-27T02:25:29;96.47;;;9.20;;
64820;SDS011;51256;55.654;37.264;2022-09-27T02:30:53;206.32;;;10.80;;
64820;SDS011;51256;55.654;37.264;2022-09-27T02:33:19;198.57;;;9.98;;
64820;SDS011;51256;55.654;37.264;2022-09-27T02:35:48;159.20;;;10.10;;
64820;SDS011;51256;55.654;37.264;2022-09-27T02:38:14;208.27;;;10.50;;
64820;SDS011;51256;55.654;37.264;2022-09-27T02:40:42;172.63;;;10.20;;
64820;SDS011;51256;55.654;37.264;2022-09-27T02:43:09;273.07;;;11.53;;
64820;SDS011;51256;55.654;37.264;2022-09-27T02:57:02;242.57;;;10.32;;
64820;SDS011;51256;55.654;37.264;2022-09-27T02:59:46;86.32;;;7.80;;
64820;SDS011;51256;55.654;37.264;2022-09-27T03:05:10;253.70;;;11.35;;
64820;SDS011;51256;55.654;37.264;2022-09-27T03:07:41;142.93;;;8.50;;
64820;SDS011;51256;55.654;37.264;2022-09-27T03:10:10;83.47;;;8.18;;
64820;SDS011;51256;55.654;37.264;2022-09-27T03:12:41;76.35;;;7.78;;
64820;SDS011;51256;55.654;37.264;2022-09-27T03:15:07;185.60;;;8.75;;
64820;SDS011;51256;55.654;37.264;2022-09-27T03:17:33;48.75;;;7.55;;
64820;SDS011;51256;55.654;37.264;2022-09-27T03:19:58;36.97;;;5.45;;
64820;SDS011;51256;55.654;37.264;2022-09-27T03:22:24;49.25;;;6.18;;
64820;SDS011;51256;55.654;37.264;2022-09-27T03:24:50;30.05;;;6.13;;
64820;SDS011;51256;55.654;37.264;2022-09-27T03:27:16;40.17;;;6.32;;
64820;SDS011;51256;55.654;37.264;2022-09-27T03:29:42;23.45;;;5.95;;
64820;SDS011;51256;55.654;37.264;2022-09-27T03:32:07;31.10;;;5.93;;
64820;SDS011;51256;55.654;37.264;2022-09-27T03:34:33;58.35;;;7.05;;
64820;SDS011;51256;55.654;37.264;2022-09-27T03:36:58;40.72;;;7.25;;
64820;SDS011;51256;55.654;37.264;2022-09-27T03:39:24;60.08;;;7.72;;
64820;SDS011;51256;55.654;37.264;2022-09-27T03:41:49;26.33;;;7.75;;
64820;SDS011;51256;55.654;37.264;2022-09-27T03:44:15;22.52;;;7.60;;
64820;SDS011;51256;55.654;37.264;2022-09-27T03:46:40;46.70;;;8.13;;
64820;SDS011;51256;55.654;37.264;2022-09-27T03:49:06;54.97;;;8.52;;
64820;SDS011;51256;55.654;37.264;2022-09-27T03:51:31;89.30;;;8.60;;
64820;SDS011;51256;55.654;37.264;2022-09-27T03:53:57;74.07;;;10.07;;
64820;SDS011;51256;55.654;37.264;2022-09-27T03:56:22;86.07;;;9.77;;
64820;SDS011;51256;55.654;37.264;2022-09-27T03:58:48;136.13;;;10.82;;
64820;SDS011;51256;55.654;37.264;2022-09-27T04:01:14;113.20;;;20.73;;
64820;SDS011;51256;55.654;37.264;2022-09-27T04:03:39;143.82;;;9.85;;
64820;SDS011;51256;55.654;37.264;2022-09-27T04:06:05;149.40;;;9.75;;
64820;SDS011;51256;55.654;37.264;2022-09-27T04:08:31;104.65;;;10.38;;
64820;SDS011;51256;55.654;37.264;2022-09-27T04:10:57;121.25;;;10.00;;
64820;SDS011;51256;55.654;37.264;2022-09-27T04:13:22;292.92;;;14.23;;
64820;SDS011;51256;55.654;37.264;2022-09-27T04:15:48;139.00;;;11.15;;
64820;SDS011;51256;55.654;37.264;2022-09-27T04:18:13;239.82;;;12.32;;
64820;SDS011;51256;55.654;37.264;2022-09-27T04:20:39;220.10;;;10.32;;
64820;SDS011;51256;55.654;37.264;2022-09-27T04:23:05;97.55;;;9.23;;
64820;SDS011;51256;55.654;37.264;2022-09-27T04:25:30;85.03;;;11.02;;
64820;SDS011;51256;55.654;37.264;2022-09-27T04:27:57;274.73;;;12.95;;
64820;SDS011;51256;55.654;37.264;2022-09-27T04:30:23;158.35;;;10.70;;
64820;SDS011;51256;55.654;37.264;2022-09-27T04:32:50;140.88;;;11.57;;
64820;SDS011;51256;55.654;37.264;2022-09-27T04:35:16;94.88;;;10.32;;
64820;SDS011;51256;55.654;37.264;2022-09-27T04:38:01;125.68;;;9.38;;
64820;SDS011;51256;55.654;37.264;2022-09-27T04:40:26;143.70;;;12.45;;
64820;SDS011;51256;55.654;37.264;2022-09-27T04:42:52;120.18;;;10.95;;
64820;SDS011;51256;55.654;37.264;2022-09-27T04:45:18;99.88;;;11.45;;
64820;SDS011;51256;55.654;37.264;2022-09-27T04:47:48;145.07;;;11.27;;
64820;SDS011;51256;55.654;37.264;2022-09-27T04:50:16;95.75;;;11.23;;
64820;SDS011;51256;55.654;37.264;2022-09-27T04:52:42;178.32;;;12.30;;
64820;SDS011;51256;55.654;37.264;2022-09-27T04:55:08;216.45;;;11.40;;
64820;SDS011;51256;55.654;37.264;2022-09-27T04:57:35;230.27;;;10.50;;
64820;SDS011;51256;55.654;37.264;2022-09-27T05:00:01;151.32;;;10.93;;
64820;SDS011;51256;55.654;37.264;2022-09-27T05:02:28;103.47;;;8.82;;
64820;SDS011;51256;55.654;37.264;2022-09-27T05:04:54;62.72;;;8.43;;
64820;SDS011;51256;55.654;37.264;2022-09-27T05:07:26;416.33;;;163.23;;
64820;SDS011;51256;55.654;37.264;2022-09-27T05:09:52;151.18;;;11.07;;
64820;SDS011;51256;55.654;37.264;2022-09-27T05:12:19;169.70;;;9.93;;
64820;SDS011;51256;55.654;37.264;2022-09-27T05:14:45;97.55;;;8.18;;
64820;SDS011;51256;55.654;37.264;2022-09-27T05:17:12;145.30;;;8.57;;
64820;SDS011;51256;55.654;37.264;2022-09-27T05:19:38;119.63;;;8.65;;
64820;SDS011;51256;55.654;37.264;2022-09-27T05:22:06;247.60;;;11.32;;
64820;SDS011;51256;55.654;37.264;2022-09-27T05:24:33;144.48;;;8.88;;
64820;SDS011;51256;55.654;37.264;2022-09-27T05:26:59;86.85;;;10.70;;
64820;SDS011;51256;55.654;37.264;2022-09-27T05:29:25;66.15;;;8.23;;
64820;SDS011;51256;55.654;37.264;2022-09-27T05:31:55;83.45;;;11.15;;
64820;SDS011;51256;55.654;37.264;2022-09-27T05:34:20;93.82;;;9.73;;
64820;SDS011;51256;55.654;37.264;2022-09-27T05:36:46;73.82;;;8.90;;
64820;SDS011;51256;55.654;37.264;2022-09-27T05:39:12;70.32;;;8.90;;
64820;SDS011;51256;55.654;37.264;2022-09-27T05:41:40;81.43;;;9.43;;
64820;SDS011;51256;55.654;37.264;2022-09-27T05:44:06;62.95;;;9.48;;
64820;SDS011;51256;55.654;37.264;2022-09-27T05:46:32;50.47;;;9.73;;
64820;SDS011;51256;55.654;37.264;2022-09-27T05:48:57;56.03;;;10.60;;
64820;SDS011;51256;55.654;37.264;2022-09-27T05:51:23;35.95;;;9.98;;
64820;SDS011;51256;55.654;37.264;2022-09-27T05:53:48;60.17;;;11.05;;
64820;SDS011;51256;55.654;37.264;2022-09-27T05:56:14;89.95;;;12.07;;
64820;SDS011;51256;55.654;37.264;2022-09-27T05:58:39;49.28;;;12.00;;
64820;SDS011;51256;55.654;37.264;2022-09-27T06:01:05;87.32;;;13.93;;
64820;SDS011;51256;55.654;37.264;2022-09-27T06:03:32;183.43;;;15.60;;
64820;SDS011;51256;55.654;37.264;2022-09-27T06:06:00;29.23;;;12.48;;
64820;SDS011;51256;55.654;37.264;2022-09-27T06:08:31;27.90;;;12.90;;
64820;SDS011;51256;55.654;37.264;2022-09-27T06:11:04;30.95;;;13.25;;
64820;SDS011;51256;55.654;37.264;2022-09-27T06:13:32;28.90;;;13.20;;
64820;SDS011;51256;55.654;37.264;2022-09-27T06:15:57;26.70;;;11.95;;
64820;SDS011;51256;55.654;37.264;2022-09-27T06:18:23;28.95;;;13.70;;
64820;SDS011;51256;55.654;37.264;2022-09-27T06:20:49;29.25;;;14.68;;
64820;SDS011;51256;55.654;37.264;2022-09-27T06:23:16;27.75;;;13.52;;
64820;SDS011;51256;55.654;37.264;2022-09-27T06:25:43;22.20;;;12.25;;
64820;SDS011;51256;55.654;37.264;2022-09-27T06:28:09;22.85;;;12.32;;
64820;SDS011;51256;55.654;37.264;2022-09-27T06:30:39;21.40;;;12.82;;
64820;SDS011;51256;55.654;37.264;2022-09-27T06:33:06;20.13;;;12.38;;
64820;SDS011;51256;55.654;37.264;2022-09-27T06:35:35;21.42;;;12.85;;
64820;SDS011;51256;55.654;37.264;2022-09-27T06:38:02;23.65;;;12.90;;
64820;SDS011;51256;55.654;37.264;2022-09-27T06:40:33;21.10;;;12.73;;
64820;SDS011;51256;55.654;37.264;2022-09-27T06:43:02;24.33;;;13.60;;
64820;SDS011;51256;55.654;37.264;2022-09-27T06:45:34;17.40;;;11.80;;
64820;SDS011;51256;55.654;37.264;2022-09-27T06:48:01;19.27;;;11.60;;
64820;SDS011;51256;55.654;37.264;2022-09-27T06:50:28;23.42;;;12.70;;
64820;SDS011;51256;55.654;37.264;2022-09-27T06:52:55;21.23;;;11.60;;
64820;SDS011;51256;55.654;37.264;2022-09-27T06:55:20;19.35;;;12.05;;
64820;SDS011;51256;55.654;37.264;2022-09-27T06:57:46;23.08;;;12.77;;
64820;SDS011;51256;55.654;37.264;2022-09-27T07:00:30;19.08;;;12.95;;
64820;SDS011;51256;55.654;37.264;2022-09-27T07:02:56;24.20;;;12.93;;
64820;SDS011;51256;55.654;37.264;2022-09-27T07:05:27;23.10;;;13.27;;
64820;SDS011;51256;55.654;37.264;2022-09-27T07:07:55;22.88;;;14.40;;
64820;SDS011;51256;55.654;37.264;2022-09-27T07:10:24;23.02;;;14.13;;
64820;SDS011;51256;55.654;37.264;2022-09-27T07:12:51;23.08;;;14.30;;
64820;SDS011;51256;55.654;37.264;2022-09-27T07:15:17;20.73;;;14.05;;
64820;SDS011;51256;55.654;37.264;2022-09-27T07:17:45;22.80;;;13.75;;
64820;SDS011;51256;55.654;37.264;2022-09-27T07:20:11;22.63;;;14.85;;
64820;SDS011;51256;55.654;37.264;2022-09-27T07:22:38;20.40;;;14.13;;
64820;SDS011;51256;55.654;37.264;2022-09-27T07:25:05;22.35;;;15.38;;
64820;SDS011;51256;55.654;37.264;2022-09-27T07:27:31;23.42;;;15.38;;
64820;SDS011;51256;55.654;37.264;2022-09-27T07:29:59;23.08;;;15.95;;
64820;SDS011;51256;55.654;37.264;2022-09-27T07:32:25;25.35;;;17.95;;
64820;SDS011;51256;55.654;37.264;2022-09-27T07:34:50;29.40;;;18.45;;
64820;SDS011;51256;55.654;37.264;2022-09-27T07:37:16;27.30;;;18.40;;
64820;SDS011;51256;55.654;37.264;2022-09-27T07:39:42;26.05;;;18.42;;
64820;SDS011;51256;55.654;37.264;2022-09-27T07:42:08;27.92;;;17.98;;
64820;SDS011;51256;55.654;37.264;2022-09-27T07:44:34;29.50;;;19.20;;
64820;SDS011;51256;55.654;37.264;2022-09-27T07:46:59;28.40;;;18.65;;
64820;SDS011;51256;55.654;37.264;2022-09-27T07:49:25;25.40;;;17.65;;
64820;SDS011;51256;55.654;37.264;2022-09-27T07:51:50;27.02;;;17.60;;
64820;SDS011;51256;55.654;37.264;2022-09-27T07:54:16;23.60;;;16.75;;
64820;SDS011;51256;55.654;37.264;2022-09-27T07:56:43;21.27;;;15.65;;
64820;SDS011;51256;55.654;37.264;2022-09-27T07:59:10;25.40;;;16.05;;
64820;SDS011;51256;55.654;37.264;2022-09-27T08:01:35;20.48;;;15.57;;
64820;SDS011;51256;55.654;37.264;2022-09-27T08:04:01;20.10;;;14.85;;
64820;SDS011;51256;55.654;37.264;2022-09-27T08:06:26;19.65;;;15.68;;
64820;SDS011;51256;55.654;37.264;2022-09-27T08:08:53;20.17;;;14.02;;
64820;SDS011;51256;55.654;37.264;2022-09-27T08:11:19;22.83;;;14.30;;
64820;SDS011;51256;55.654;37.264;2022-09-27T08:13:45;19.55;;;14.00;;
64820;SDS011;51256;55.654;37.264;2022-09-27T08:16:16;17.55;;;13.40;;
64820;SDS011;51256;55.654;37.264;2022-09-27T08:18:41;21.48;;;12.50;;
64820;SDS011;51256;55.654;37.264;2022-09-27T08:21:07;18.23;;;13.15;;
64820;SDS011;51256;55.654;37.264;2022-09-27T08:23:33;19.45;;;12.95;;
64820;SDS011;51256;55.654;37.264;2022-09-27T08:25:58;17.45;;;13.13;;
64820;SDS011;51256;55.654;37.264;2022-09-27T08:28:24;16.70;;;12.10;;
64820;SDS011;51256;55.654;37.264;2022-09-27T08:30:51;14.77;;;10.95;;
64820;SDS011;51256;55.654;37.264;2022-09-27T08:33:16;14.52;;;11.18;;
64820;SDS011;51256;55.654;37.264;2022-09-27T08:35:42;17.13;;;10.73;;
64820;SDS011;51256;55.654;37.264;2022-09-27T08:38:08;17.35;;;11.68;;
64820;SDS011;51256;55.654;37.264;2022-09-27T08:43:21;15.63;;;10.98;;
64820;SDS011;51256;55.654;37.264;2022-09-27T08:46:06;13.93;;;10.10;;
64820;SDS011;51256;55.654;37.264;2022-09-27T08:48:34;14.15;;;9.70;;
64820;SDS011;51256;55.654;37.264;2022-09-27T08:51:02;13.20;;;9.65;;
64820;SDS011;51256;55.654;37.264;2022-09-27T08:56:11;12.85;;;8.95;;
64820;SDS011;51256;55.654;37.264;2022-09-27T08:58:49;11.18;;;8.98;;
64820;SDS011;51256;55.654;37.264;2022-09-27T09:01:19;11.32;;;8.85;;
64820;SDS011;51256;55.654;37.264;2022-09-27T09:03:46;12.10;;;8.60;;
64820;SDS011;51256;55.654;37.264;2022-09-27T09:06:27;11.35;;;8.32;;
64820;SDS011;51256;55.654;37.264;2022-09-27T09:12:08;10.15;;;7.47;;
64820;SDS011;51256;55.654;37.264;2022-09-27T09:17:57;12.48;;;8.25;;
64820;SDS011;51256;55.654;37.264;2022-09-27T09:20:54;11.65;;;7.75;;
64820;SDS011;51256;55.654;37.264;2022-09-27T09:26:45;9.60;;;6.97;;
64820;SDS011;51256;55.654;37.264;2022-09-27T09:29:44;9.75;;;7.25;;
64820;SDS011;51256;55.654;37.264;2022-09-27T09:32:24;13.75;;;8.27;;
64820;SDS011;51256;55.654;37.264;2022-09-27T09:35:14;13.48;;;8.45;;
64820;SDS011;51256;55.654;37.264;2022-09-27T09:40:28;8.60;;;5.30;;
64820;SDS011;51256;55.654;37.264;2022-09-27T09:43:02;8.98;;;5.30;;
64820;SDS011;51256;55.654;37.264;2022-09-27T09:45:34;9.07;;;5.47;;
64820;SDS011;51256;55.654;37.264;2022-09-27T09:50:34;8.20;;;3.50;;
64820;SDS011;51256;55.654;37.264;2022-09-27T09:53:17;9.82;;;3.92;;
64820;SDS011;51256;55.654;37.264;2022-09-27T09:59:00;7.20;;;4.40;;
64820;SDS011;51256;55.654;37.264;2022-09-27T10:01:32;14.32;;;5.20;;
64820;SDS011;51256;55.654;37.264;2022-09-27T10:04:01;10.70;;;4.72;;
64820;SDS011;51256;55.654;37.264;2022-09-27T10:06:28;6.03;;;3.85;;
64820;SDS011;51256;55.654;37.264;2022-09-27T10:08:55;6.25;;;4.13;;
64820;SDS011;51256;55.654;37.264;2022-09-27T10:13:49;8.43;;;4.20;;
64820;SDS011;51256;55.654;37.264;2022-09-27T10:16:16;8.98;;;4.20;;
64820;SDS011;51256;55.654;37.264;2022-09-27T10:18:43;6.30;;;3.92;;
64820;SDS011;51256;55.654;37.264;2022-09-27T10:21:13;5.45;;;3.70;;
64820;SDS011;51256;55.654;37.264;2022-09-27T10:26:33;5.53;;;3.40;;
64820;SDS011;51256;55.654;37.264;2022-09-27T10:31:47;7.53;;;4.43;;
64820;SDS011;51256;55.654;37.264;2022-09-27T10:34:17;7.63;;;4.90;;
64820;SDS011;51256;55.654;37.264;2022-09-27T10:37:03;10.65;;;5.30;;
64820;SDS011;51256;55.654;37.264;2022-09-27T10:39:48;10.55;;;5.28;;
64820;SDS011;51256;55.654;37.264;2022-09-27T10:44:44;9.13;;;5.05;;
64820;SDS011;51256;55.654;37.264;2022-09-27T10:47:10;9.00;;;5.00;;
64820;SDS011;51256;55.654;37.264;2022-09-27T10:49:46;8.25;;;4.82;;
64820;SDS011;51256;55.654;37.264;2022-09-27T10:52:14;7.15;;;5.20;;
64820;SDS011;51256;55.654;37.264;2022-09-27T10:54:50;9.80;;;5.13;;
64820;SDS011;51256;55.654;37.264;2022-09-27T10:57:25;7.55;;;5.20;;
64820;SDS011;51256;55.654;37.264;2022-09-27T10:59:59;6.85;;;4.90;;
64820;SDS011;51256;55.654;37.264;2022-09-27T11:07:27;9.02;;;5.10;;
64820;SDS011;51256;55.654;37.264;2022-09-27T11:09:54;7.93;;;4.75;;
64820;SDS011;51256;55.654;37.264;2022-09-27T11:12:27;10.25;;;4.85;;
64820;SDS011;51256;55.654;37.264;2022-09-27T11:15:01;8.05;;;4.93;;
64820;SDS011;51256;55.654;37.264;2022-09-27T11:28:54;8.10;;;5.20;;
64820;SDS011;51256;55.654;37.264;2022-09-27T11:34:13;13.80;;;5.53;;
64820;SDS011;51256;55.654;37.264;2022-09-27T12:10:50;6.70;;;4.20;;
64820;SDS011;51256;55.654;37.264;2022-09-27T12:13:44;8.30;;;4.45;;
64820;SDS011;51256;55.654;37.264;2022-09-27T12:16:10;8.13;;;4.55;;
64820;SDS011;51256;55.654;37.264;2022-09-27T12:18:39;8.02;;;4.10;;
64820;SDS011;51256;55.654;37.264;2022-09-27T12:21:06;7.60;;;4.05;;
64820;SDS011;51256;55.654;37.264;2022-09-27T12:23:44;10.48;;;5.45;;
64820;SDS011;51256;55.654;37.264;2022-09-27T12:26:13;6.13;;;4.10;;
64820;SDS011;51256;55.654;37.264;2022-09-27T12:28:45;6.65;;;3.88;;
64820;SDS011;51256;55.654;37.264;2022-09-27T12:31:22;5.00;;;3.50;;
64820;SDS011;51256;55.654;37.264;2022-09-27T12:36:42;6.13;;;3.58;;
64820;SDS011;51256;55.654;37.264;2022-09-27T12:39:55;9.73;;;3.60;;
64820;SDS011;51256;55.654;37.264;2022-09-27T12:42:18;10.18;;;3.85;;
64820;SDS011;51256;55.654;37.264;2022-09-27T12:44:48;8.10;;;3.70;;
64820;SDS011;51256;55.654;37.264;2022-09-27T12:50:02;7.95;;;4.90;;
64820;SDS011;51256;55.654;37.264;2022-09-27T12:52:38;6.45;;;4.68;;
64820;SDS011;51256;55.654;37.264;2022-09-27T13:14:25;5.63;;;2.85;;
64820;SDS011;51256;55.654;37.264;2022-09-27T13:16:54;5.85;;;3.20;;
64820;SDS011;51256;55.654;37.264;2022-09-27T13:22:02;10.05;;;3.33;;
64820;SDS011;51256;55.654;37.264;2022-09-27T13:24:42;7.75;;;3.65;;
64820;SDS011;51256;55.654;37.264;2022-09-27T13:29:51;6.13;;;3.28;;
64820;SDS011;51256;55.654;37.264;2022-09-27T13:32:36;5.93;;;3.60;;
64820;SDS011;51256;55.654;37.264;2022-09-27T13:35:16;11.93;;;3.63;;
64820;SDS011;51256;55.654;37.264;2022-09-27T13:37:46;9.80;;;3.78;;
64820;SDS011;51256;55.654;37.264;2022-09-27T13:42:46;6.63;;;3.47;;
64820;SDS011;51256;55.654;37.264;2022-09-27T13:47:52;9.65;;;4.00;;
64820;SDS011;51256;55.654;37.264;2022-09-27T13:50:24;7.70;;;4.15;;
64820;SDS011;51256;55.654;37.264;2022-09-27T13:55:39;6.93;;;4.30;;
64820;SDS011;51256;55.654;37.264;2022-09-27T14:04:08;7.90;;;4.32;;
64820;SDS011;51256;55.654;37.264;2022-09-27T14:06:45;14.25;;;4.80;;
64820;SDS011;51256;55.654;37.264;2022-09-27T14:11:47;8.70;;;4.72;;
64820;SDS011;51256;55.654;37.264;2022-09-27T14:14:18;11.77;;;5.10;;
64820;SDS011;51256;55.654;37.264;2022-09-27T14:19:14;9.25;;;4.78;;
64820;SDS011;51256;55.654;37.264;2022-09-27T14:21:43;7.20;;;4.38;;
64820;SDS011;51256;55.654;37.264;2022-09-27T14:24:29;16.92;;;5.85;;
64820;SDS011;51256;55.654;37.264;2022-09-27T14:32:14;9.07;;;5.60;;
64820;SDS011;51256;55.654;37.264;2022-09-27T14:34:45;7.97;;;4.68;;
64820;SDS011;51256;55.654;37.264;2022-09-27T14:37:17;9.93;;;5.35;;
64820;SDS011;51256;55.654;37.264;2022-09-27T14:39:55;8.23;;;5.10;;
64820;SDS011;51256;55.654;37.264;2022-09-27T14:42:28;9.23;;;5.30;;
64820;SDS011;51256;55.654;37.264;2022-09-27T14:44:58;7.13;;;4.63;;
64820;SDS011;51256;55.654;37.264;2022-09-27T14:47:27;9.88;;;5.05;;
64820;SDS011;51256;55.654;37.264;2022-09-27T14:49:54;9.98;;;5.20;;
64820;SDS011;51256;55.654;37.264;2022-09-27T14:52:29;10.82;;;5.45;;
64820;SDS011;51256;55.654;37.264;2022-09-27T14:55:13;9.35;;;5.30;;
64820;SDS011;51256;55.654;37.264;2022-09-27T14:57:44;9.27;;;5.40;;
64820;SDS011;51256;55.654;37.264;2022-09-27T15:00:17;9.60;;;5.65;;
64820;SDS011;51256;55.654;37.264;2022-09-27T15:02:45;9.40;;;5.18;;
64820;SDS011;51256;55.654;37.264;2022-09-27T15:05:14;8.82;;;5.07;;
64820;SDS011;51256;55.654;37.264;2022-09-27T15:07:45;10.77;;;5.28;;
64820;SDS011;51256;55.654;37.264;2022-09-27T15:10:16;9.82;;;5.25;;
64820;SDS011;51256;55.654;37.264;2022-09-27T15:12:44;9.27;;;5.40;;
64820;SDS011;51256;55.654;37.264;2022-09-27T15:15:16;9.60;;;5.10;;
64820;SDS011;51256;55.654;37.264;2022-09-27T15:17:45;9.55;;;5.93;;
64820;SDS011;51256;55.654;37.264;2022-09-27T15:20:28;10.88;;;6.32;;
64820;SDS011;51256;55.654;37.264;2022-09-27T15:23:03;9.80;;;5.25;;
64820;SDS011;51256;55.654;37.264;2022-09-27T15:25:33;9.65;;;5.30;;
64820;SDS011;51256;55.654;37.264;2022-09-27T15:28:00;9.02;;;5.50;;
64820;SDS011;51256;55.654;37.264;2022-09-27T15:31:11;12.93;;;5.50;;
64820;SDS011;51256;55.654;37.264;2022-09-27T15:33:26;10.65;;;5.68;;
64820;SDS011;51256;55.654;37.264;2022-09-27T15:35:56;13.40;;;5.53;;
64820;SDS011;51256;55.654;37.264;2022-09-27T15:43:30;12.25;;;5.68;;
64820;SDS011;51256;55.654;37.264;2022-09-27T15:46:02;11.85;;;6.47;;
64820;SDS011;51256;55.654;37.264;2022-09-27T15:48:33;10.85;;;6.05;;
64820;SDS011;51256;55.654;37.264;2022-09-27T15:51:01;11.25;;;5.72;;
64820;SDS011;51256;55.654;37.264;2022-09-27T15:55:58;9.25;;;6.40;;
64820;SDS011;51256;55.654;37.264;2022-09-27T15:58:30;12.20;;;6.60;;
64820;SDS011;51256;55.654;37.264;2022-09-27T16:00:58;14.85;;;7.25;;
64820;SDS011;51256;55.654;37.264;2022-09-27T16:03:29;11.88;;;6.50;;
64820;SDS011;51256;55.654;37.264;2022-09-27T16:05:55;13.48;;;7.47;;
64820;SDS011;51256;55.654;37.264;2022-09-27T16:08:22;20.73;;;13.20;;
64820;SDS011;51256;55.654;37.264;2022-09-27T16:10:49;31.27;;;21.58;;
64820;SDS011;51256;55.654;37.264;2022-09-27T16:13:16;36.42;;;25.02;;
64820;SDS011;51256;55.654;37.264;2022-09-27T16:15:41;42.65;;;27.95;;
64820;SDS011;51256;55.654;37.264;2022-09-27T16:18:08;43.92;;;31.88;;
64820;SDS011;51256;55.654;37.264;2022-09-27T16:20:34;44.58;;;29.98;;
64820;SDS011;51256;55.654;37.264;2022-09-27T16:23:00;34.97;;;22.63;;
64820;SDS011;51256;55.654;37.264;2022-09-27T16:25:26;33.08;;;23.27;;
64820;SDS011;51256;55.654;37.264;2022-09-27T16:27:52;30.48;;;21.70;;
64820;SDS011;51256;55.654;37.264;2022-09-27T16:30:21;27.60;;;17.63;;
64820;SDS011;51256;55.654;37.264;2022-09-27T16:32:46;22.67;;;12.40;;
64820;SDS011;51256;55.654;37.264;2022-09-27T16:35:13;16.02;;;8.80;;
64820;SDS011;51256;55.654;37.264;2022-09-27T16:37:40;15.27;;;6.60;;
64820;SDS011;51256;55.654;37.264;2022-09-27T16:40:06;11.57;;;6.60;;
64820;SDS011;51256;55.654;37.264;2022-09-27T16:42:33;10.80;;;6.07;;
64820;SDS011;51256;55.654;37.264;2022-09-27T16:44:59;9.93;;;6.03;;
64820;SDS011;51256;55.654;37.264;2022-09-27T16:47:28;13.55;;;5.80;;
64820;SDS011;51256;55.654;37.264;2022-09-27T16:49:53;14.38;;;6.05;;
64820;SDS011;51256;55.654;37.264;2022-09-27T16:52:38;9.75;;;5.72;;
64820;SDS011;51256;55.654;37.264;2022-09-27T16:55:06;10.50;;;5.82;;
64820;SDS011;51256;55.654;37.264;2022-09-27T16:57:33;9.02;;;5.72;;
64820;SDS011;51256;55.654;37.264;2022-09-27T17:00:02;9.15;;;5.60;;
64820;SDS011;51256;55.654;37.264;2022-09-27T17:02:28;10.43;;;5.45;;
64820;SDS011;51256;55.654;37.264;2022-09-27T17:04:54;11.52;;;5.90;;
64820;SDS011;51256;55.654;37.264;2022-09-27T17:07:20;12.07;;;5.93;;
64820;SDS011;51256;55.654;37.264;2022-09-27T17:09:46;11.02;;;5.90;;
64820;SDS011;51256;55.654;37.264;2022-09-27T17:12:12;9.57;;;5.45;;
64820;SDS011;51256;55.654;37.264;2022-09-27T17:14:39;10.07;;;5.75;;
64820;SDS011;51256;55.654;37.264;2022-09-27T17:17:05;9.43;;;5.07;;
64820;SDS011;51256;55.654;37.264;2022-09-27T17:19:31;11.50;;;5.60;;
64820;SDS011;51256;55.654;37.264;2022-09-27T17:21:57;9.23;;;4.93;;
64820;SDS011;51256;55.654;37.264;2022-09-27T17:24:23;7.13;;;4.80;;
64820;SDS011;51256;55.654;37.264;2022-09-27T17:26:49;10.52;;;5.38;;
64820;SDS011;51256;55.654;37.264;2022-09-27T17:29:15;9.32;;;5.05;;
64820;SDS011;51256;55.654;37.264;2022-09-27T17:31:41;10.50;;;5.07;;
64820;SDS011;51256;55.654;37.264;2022-09-27T17:34:07;9.68;;;5.20;;
64820;SDS011;51256;55.654;37.264;2022-09-27T17:36:37;9.48;;;5.65;;